<?xml version="1.0" encoding="UTF-8" standalone="no" ?>
<gpx xmlns="http://www.topografix.com/GPX/1/1" xmlns:xsi="http://www.w3.org/2001/XMLSchema-instance" xsi:schemaLocation="http://www.topografix.com/GPX/1/1 http://www.topografix.com/GPX/1/1/gpx.xsd" version="1.1" creator="VisuGPX - https://www.visugpx.com">
  <metadata>
    <name>GR 653 BAZIEGE seuil NAUROUZE</name>
    <desc><![CDATA[chemins GR 653 a l'aller et retour via canal]]></desc>
  </metadata>
  <trk>
    <name><![CDATA[GR 653 BAZIEGE seuil NAUROUZE_1]]></name>
    <trkseg>
      <trkpt lat="43.45557" lon="1.61537">
        <ele>163.019</ele>
        <time>2016-12-30T13:05:02Z</time>
      </trkpt>
      <trkpt lat="43.4562" lon="1.616">
        <ele>164.281</ele>
        <time>2016-12-30T13:04:42Z</time>
      </trkpt>
      <trkpt lat="43.45776" lon="1.61839">
        <ele>185.391</ele>
        <time>2016-12-30T13:04:22Z</time>
      </trkpt>
      <trkpt lat="43.45868" lon="1.6207">
        <ele>204.979</ele>
        <time>2016-12-30T13:04:02Z</time>
      </trkpt>
      <trkpt lat="43.45924" lon="1.62087">
        <ele>205.363</ele>
        <time>2016-12-30T13:03:42Z</time>
      </trkpt>
      <trkpt lat="43.45906" lon="1.62192">
        <ele>206.633</ele>
        <time>2016-12-30T13:03:22Z</time>
      </trkpt>
      <trkpt lat="43.45961" lon="1.62277">
        <ele>211.633</ele>
        <time>2016-12-30T13:03:02Z</time>
      </trkpt>
      <trkpt lat="43.46024" lon="1.6241">
        <ele>201.726</ele>
        <time>2016-12-30T13:02:42Z</time>
      </trkpt>
      <trkpt lat="43.4608" lon="1.62566">
        <ele>188.096</ele>
        <time>2016-12-30T13:02:22Z</time>
      </trkpt>
      <trkpt lat="43.46087" lon="1.62687">
        <ele>175.631</ele>
        <time>2016-12-30T13:02:02Z</time>
      </trkpt>
      <trkpt lat="43.46124" lon="1.62716">
        <ele>174.826</ele>
        <time>2016-12-30T13:01:42Z</time>
      </trkpt>
      <trkpt lat="43.46157" lon="1.62803">
        <ele>174.508</ele>
        <time>2016-12-30T13:01:22Z</time>
      </trkpt>
      <trkpt lat="43.46183" lon="1.6312">
        <ele>173.509</ele>
        <time>2016-12-30T13:01:02Z</time>
      </trkpt>
      <trkpt lat="43.46206" lon="1.63309">
        <ele>174.454</ele>
        <time>2016-12-30T13:00:42Z</time>
      </trkpt>
      <trkpt lat="43.46243" lon="1.63489">
        <ele>175.014</ele>
        <time>2016-12-30T13:00:22Z</time>
      </trkpt>
      <trkpt lat="43.46322" lon="1.63658">
        <ele>179.22</ele>
        <time>2016-12-30T13:00:02Z</time>
      </trkpt>
      <trkpt lat="43.46335" lon="1.63751">
        <ele>178.194</ele>
        <time>2016-12-30T12:59:42Z</time>
      </trkpt>
      <trkpt lat="43.46441" lon="1.63969">
        <ele>179.074</ele>
        <time>2016-12-30T12:59:22Z</time>
      </trkpt>
      <trkpt lat="43.46465" lon="1.64061">
        <ele>179.474</ele>
        <time>2016-12-30T12:59:02Z</time>
      </trkpt>
      <trkpt lat="43.46478" lon="1.64266">
        <ele>178.687</ele>
        <time>2016-12-30T12:58:02Z</time>
      </trkpt>
      <trkpt lat="43.46141" lon="1.64351">
        <ele>184.647</ele>
        <time>2016-12-30T12:57:42Z</time>
      </trkpt>
      <trkpt lat="43.46143" lon="1.64351">
        <ele>184.672</ele>
        <time>2016-12-30T12:56:42Z</time>
      </trkpt>
      <trkpt lat="43.45948" lon="1.64696">
        <ele>202.087</ele>
        <time>2016-12-30T12:56:22Z</time>
      </trkpt>
      <trkpt lat="43.45905" lon="1.64798">
        <ele>207.208</ele>
        <time>2016-12-30T12:56:02Z</time>
      </trkpt>
      <trkpt lat="43.45823" lon="1.6475">
        <ele>198.911</ele>
        <time>2016-12-30T12:55:42Z</time>
      </trkpt>
      <trkpt lat="43.45714" lon="1.64887">
        <ele>193.947</ele>
        <time>2016-12-30T12:55:22Z</time>
      </trkpt>
      <trkpt lat="43.45583" lon="1.64844">
        <ele>200.726</ele>
        <time>2016-12-30T12:55:02Z</time>
      </trkpt>
      <trkpt lat="43.45525" lon="1.64865">
        <ele>205.116</ele>
        <time>2016-12-30T12:54:42Z</time>
      </trkpt>
      <trkpt lat="43.4544" lon="1.64796">
        <ele>217.79</ele>
        <time>2016-12-30T12:54:22Z</time>
      </trkpt>
      <trkpt lat="43.45362" lon="1.64762">
        <ele>220.41</ele>
        <time>2016-12-30T12:54:02Z</time>
      </trkpt>
      <trkpt lat="43.45336" lon="1.64834">
        <ele>222.89</ele>
        <time>2016-12-30T12:53:42Z</time>
      </trkpt>
      <trkpt lat="43.45331" lon="1.64905">
        <ele>223.643</ele>
        <time>2016-12-30T12:53:22Z</time>
      </trkpt>
      <trkpt lat="43.45282" lon="1.65021">
        <ele>224.723</ele>
        <time>2016-12-30T12:53:02Z</time>
      </trkpt>
      <trkpt lat="43.45199" lon="1.65523">
        <ele>228.578</ele>
        <time>2016-12-30T12:52:42Z</time>
      </trkpt>
      <trkpt lat="43.45179" lon="1.65641">
        <ele>230.633</ele>
        <time>2016-12-30T12:52:22Z</time>
      </trkpt>
      <trkpt lat="43.45174" lon="1.65786">
        <ele>233.808</ele>
        <time>2016-12-30T12:52:02Z</time>
      </trkpt>
      <trkpt lat="43.45153" lon="1.65928">
        <ele>237.217</ele>
        <time>2016-12-30T12:51:42Z</time>
      </trkpt>
      <trkpt lat="43.45112" lon="1.66018">
        <ele>240.061</ele>
        <time>2016-12-30T12:51:22Z</time>
      </trkpt>
      <trkpt lat="43.45026" lon="1.66048">
        <ele>236.581</ele>
        <time>2016-12-30T12:51:02Z</time>
      </trkpt>
      <trkpt lat="43.44828" lon="1.66067">
        <ele>227.996</ele>
        <time>2016-12-30T12:50:42Z</time>
      </trkpt>
      <trkpt lat="43.44735" lon="1.66095">
        <ele>227.29</ele>
        <time>2016-12-30T12:50:22Z</time>
      </trkpt>
      <trkpt lat="43.447" lon="1.66261">
        <ele>227.42</ele>
        <time>2016-12-30T12:50:02Z</time>
      </trkpt>
      <trkpt lat="43.4464" lon="1.66425">
        <ele>200.52</ele>
        <time>2016-12-30T12:49:42Z</time>
      </trkpt>
      <trkpt lat="43.44558" lon="1.66534">
        <ele>179.183</ele>
        <time>2016-12-30T12:49:22Z</time>
      </trkpt>
      <trkpt lat="43.44538" lon="1.66545">
        <ele>178.563</ele>
        <time>2016-12-30T12:49:02Z</time>
      </trkpt>
      <trkpt lat="43.44523" lon="1.66473">
        <ele>175.878</ele>
        <time>2016-12-30T12:48:42Z</time>
      </trkpt>
      <trkpt lat="43.44504" lon="1.66471">
        <ele>175.233</ele>
        <time>2016-12-30T12:48:22Z</time>
      </trkpt>
      <trkpt lat="43.44487" lon="1.66451">
        <ele>175.408</ele>
        <time>2016-12-30T12:48:02Z</time>
      </trkpt>
      <trkpt lat="43.4446" lon="1.66458">
        <ele>175.226</ele>
        <time>2016-12-30T12:47:42Z</time>
      </trkpt>
      <trkpt lat="43.44449" lon="1.6642">
        <ele>175.106</ele>
        <time>2016-12-30T12:47:22Z</time>
      </trkpt>
      <trkpt lat="43.44425" lon="1.6642">
        <ele>175.089</ele>
        <time>2016-12-30T12:47:02Z</time>
      </trkpt>
      <trkpt lat="43.44395" lon="1.6639">
        <ele>179.617</ele>
        <time>2016-12-30T12:46:42Z</time>
      </trkpt>
      <trkpt lat="43.44365" lon="1.66415">
        <ele>176.251</ele>
        <time>2016-12-30T12:46:22Z</time>
      </trkpt>
      <trkpt lat="43.44302" lon="1.66425">
        <ele>175.051</ele>
        <time>2016-12-30T12:46:02Z</time>
      </trkpt>
      <trkpt lat="43.44273" lon="1.66406">
        <ele>175.321</ele>
        <time>2016-12-30T12:45:42Z</time>
      </trkpt>
      <trkpt lat="43.44234" lon="1.6634">
        <ele>179.344</ele>
        <time>2016-12-30T12:45:22Z</time>
      </trkpt>
      <trkpt lat="43.44151" lon="1.66289">
        <ele>171.974</ele>
        <time>2016-12-30T12:45:02Z</time>
      </trkpt>
      <trkpt lat="43.44121" lon="1.66303">
        <ele>170.289</ele>
        <time>2016-12-30T12:44:42Z</time>
      </trkpt>
      <trkpt lat="43.44107" lon="1.66427">
        <ele>175.774</ele>
        <time>2016-12-30T12:44:22Z</time>
      </trkpt>
      <trkpt lat="43.44109" lon="1.66474">
        <ele>179.108</ele>
        <time>2016-12-30T12:44:02Z</time>
      </trkpt>
      <trkpt lat="43.44144" lon="1.66524">
        <ele>179.525</ele>
        <time>2016-12-30T12:43:42Z</time>
      </trkpt>
      <trkpt lat="43.4413" lon="1.6674">
        <ele>181.323</ele>
        <time>2016-12-30T12:43:22Z</time>
      </trkpt>
      <trkpt lat="43.44111" lon="1.66823">
        <ele>183.097</ele>
        <time>2016-12-30T12:43:02Z</time>
      </trkpt>
      <trkpt lat="43.44064" lon="1.6689">
        <ele>185.084</ele>
        <time>2016-12-30T12:42:42Z</time>
      </trkpt>
      <trkpt lat="43.43986" lon="1.67073">
        <ele>189.528</ele>
        <time>2016-12-30T12:42:02Z</time>
      </trkpt>
      <trkpt lat="43.43969" lon="1.67207">
        <ele>192.448</ele>
        <time>2016-12-30T12:41:42Z</time>
      </trkpt>
      <trkpt lat="43.44" lon="1.6727">
        <ele>192.068</ele>
        <time>2016-12-30T12:41:22Z</time>
      </trkpt>
      <trkpt lat="43.44018" lon="1.67361">
        <ele>192.041</ele>
        <time>2016-12-30T12:40:42Z</time>
      </trkpt>
      <trkpt lat="43.44016" lon="1.67453">
        <ele>193.751</ele>
        <time>2016-12-30T12:39:42Z</time>
      </trkpt>
      <trkpt lat="43.43972" lon="1.67611">
        <ele>194.026</ele>
        <time>2016-12-30T12:39:22Z</time>
      </trkpt>
      <trkpt lat="43.44022" lon="1.67674">
        <ele>194.041</ele>
        <time>2016-12-30T12:38:22Z</time>
      </trkpt>
      <trkpt lat="43.44099" lon="1.67743">
        <ele>196.508</ele>
        <time>2016-12-30T12:38:02Z</time>
      </trkpt>
      <trkpt lat="43.44156" lon="1.67764">
        <ele>200.521</ele>
        <time>2016-12-30T12:37:42Z</time>
      </trkpt>
      <trkpt lat="43.44253" lon="1.67818">
        <ele>204.029</ele>
        <time>2016-12-30T12:37:22Z</time>
      </trkpt>
      <trkpt lat="43.44159" lon="1.68246">
        <ele>219.866</ele>
        <time>2016-12-30T12:37:02Z</time>
      </trkpt>
      <trkpt lat="43.44101" lon="1.68454">
        <ele>225.846</ele>
        <time>2016-12-30T12:36:42Z</time>
      </trkpt>
      <trkpt lat="43.44068" lon="1.6849">
        <ele>225.51</ele>
        <time>2016-12-30T12:36:22Z</time>
      </trkpt>
      <trkpt lat="43.44058" lon="1.68551">
        <ele>226.99</ele>
        <time>2016-12-30T12:36:02Z</time>
      </trkpt>
      <trkpt lat="43.4393" lon="1.68843">
        <ele>215.99</ele>
        <time>2016-12-30T12:35:42Z</time>
      </trkpt>
      <trkpt lat="43.43882" lon="1.68905">
        <ele>207.713</ele>
        <time>2016-12-30T12:35:22Z</time>
      </trkpt>
      <trkpt lat="43.43822" lon="1.6894">
        <ele>204.473</ele>
        <time>2016-12-30T12:35:02Z</time>
      </trkpt>
      <trkpt lat="43.43769" lon="1.68931">
        <ele>208.328</ele>
        <time>2016-12-30T12:34:42Z</time>
      </trkpt>
      <trkpt lat="43.43605" lon="1.68986">
        <ele>212.863</ele>
        <time>2016-12-30T12:34:22Z</time>
      </trkpt>
      <trkpt lat="43.43436" lon="1.69221">
        <ele>217.608</ele>
        <time>2016-12-30T12:34:02Z</time>
      </trkpt>
      <trkpt lat="43.43402" lon="1.69228">
        <ele>217.226</ele>
        <time>2016-12-30T12:33:42Z</time>
      </trkpt>
      <trkpt lat="43.43325" lon="1.69444">
        <ele>228.606</ele>
        <time>2016-12-30T12:33:22Z</time>
      </trkpt>
      <trkpt lat="43.43229" lon="1.69579">
        <ele>238.889</ele>
        <time>2016-12-30T12:33:02Z</time>
      </trkpt>
      <trkpt lat="43.43162" lon="1.6955">
        <ele>236.162</ele>
        <time>2016-12-30T12:32:42Z</time>
      </trkpt>
      <trkpt lat="43.43161" lon="1.69646">
        <ele>238.866</ele>
        <time>2016-12-30T12:32:22Z</time>
      </trkpt>
      <trkpt lat="43.43171" lon="1.69669">
        <ele>241.256</ele>
        <time>2016-12-30T12:32:02Z</time>
      </trkpt>
      <trkpt lat="43.43166" lon="1.69718">
        <ele>243.796</ele>
        <time>2016-12-30T12:31:42Z</time>
      </trkpt>
      <trkpt lat="43.4315" lon="1.69733">
        <ele>243.269</ele>
        <time>2016-12-30T12:31:22Z</time>
      </trkpt>
      <trkpt lat="43.43119" lon="1.69806">
        <ele>243.659</ele>
        <time>2016-12-30T12:31:02Z</time>
      </trkpt>
      <trkpt lat="43.43069" lon="1.69886">
        <ele>240.014</ele>
        <time>2016-12-30T12:30:42Z</time>
      </trkpt>
      <trkpt lat="43.43039" lon="1.69993">
        <ele>236.929</ele>
        <time>2016-12-30T12:30:22Z</time>
      </trkpt>
      <trkpt lat="43.43074" lon="1.70007">
        <ele>236.508</ele>
        <time>2016-12-30T12:30:02Z</time>
      </trkpt>
      <trkpt lat="43.43061" lon="1.70075">
        <ele>230.115</ele>
        <time>2016-12-30T12:29:42Z</time>
      </trkpt>
      <trkpt lat="43.42978" lon="1.70213">
        <ele>219.705</ele>
        <time>2016-12-30T12:29:22Z</time>
      </trkpt>
      <trkpt lat="43.42847" lon="1.70252">
        <ele>201.344</ele>
        <time>2016-12-30T12:29:02Z</time>
      </trkpt>
      <trkpt lat="43.42794" lon="1.70334">
        <ele>185.327</ele>
        <time>2016-12-30T12:28:42Z</time>
      </trkpt>
      <trkpt lat="43.42742" lon="1.70379">
        <ele>175.021</ele>
        <time>2016-12-30T12:28:22Z</time>
      </trkpt>
      <trkpt lat="43.42536" lon="1.7082">
        <ele>185.481</ele>
        <time>2016-12-30T12:28:02Z</time>
      </trkpt>
      <trkpt lat="43.42445" lon="1.71076">
        <ele>189.031</ele>
        <time>2016-12-30T12:26:42Z</time>
      </trkpt>
      <trkpt lat="43.424" lon="1.71268">
        <ele>194.214</ele>
        <time>2016-12-30T12:26:22Z</time>
      </trkpt>
      <trkpt lat="43.4235" lon="1.71475">
        <ele>195.414</ele>
        <time>2016-12-30T12:26:02Z</time>
      </trkpt>
      <trkpt lat="43.42249" lon="1.71573">
        <ele>201.159</ele>
        <time>2016-12-30T12:24:02Z</time>
      </trkpt>
      <trkpt lat="43.42205" lon="1.71661">
        <ele>205.574</ele>
        <time>2016-12-30T12:23:42Z</time>
      </trkpt>
      <trkpt lat="43.42116" lon="1.71572">
        <ele>206.608</ele>
        <time>2016-12-30T12:23:22Z</time>
      </trkpt>
      <trkpt lat="43.42169" lon="1.71451">
        <ele>203.22</ele>
        <time>2016-12-30T12:23:02Z</time>
      </trkpt>
      <trkpt lat="43.42159" lon="1.7137">
        <ele>201.873</ele>
        <time>2016-12-30T12:22:42Z</time>
      </trkpt>
      <trkpt lat="43.42075" lon="1.71263">
        <ele>199.592</ele>
        <time>2016-12-30T12:22:22Z</time>
      </trkpt>
      <trkpt lat="43.41949" lon="1.71166">
        <ele>189.31</ele>
        <time>2016-12-30T12:22:02Z</time>
      </trkpt>
      <trkpt lat="43.41866" lon="1.71152">
        <ele>192.664</ele>
        <time>2016-12-30T12:21:42Z</time>
      </trkpt>
      <trkpt lat="43.41733" lon="1.7105">
        <ele>189.294</ele>
        <time>2016-12-30T12:21:22Z</time>
      </trkpt>
      <trkpt lat="43.41633" lon="1.70993">
        <ele>189.744</ele>
        <time>2016-12-30T12:21:02Z</time>
      </trkpt>
      <trkpt lat="43.4162" lon="1.71016">
        <ele>190.617</ele>
        <time>2016-12-30T12:20:42Z</time>
      </trkpt>
      <trkpt lat="43.41602" lon="1.71205">
        <ele>198.177</ele>
        <time>2016-12-30T12:20:22Z</time>
      </trkpt>
      <trkpt lat="43.41555" lon="1.71237">
        <ele>197.572</ele>
        <time>2016-12-30T12:20:02Z</time>
      </trkpt>
      <trkpt lat="43.41524" lon="1.71331">
        <ele>201.637</ele>
        <time>2016-12-30T12:19:42Z</time>
      </trkpt>
      <trkpt lat="43.4147" lon="1.71434">
        <ele>206.608</ele>
        <time>2016-12-30T12:19:22Z</time>
      </trkpt>
      <trkpt lat="43.4141" lon="1.71586">
        <ele>209.817</ele>
        <time>2016-12-30T12:19:02Z</time>
      </trkpt>
      <trkpt lat="43.41314" lon="1.71577">
        <ele>210.089</ele>
        <time>2016-12-30T12:18:42Z</time>
      </trkpt>
      <trkpt lat="43.41118" lon="1.71634">
        <ele>205.028</ele>
        <time>2016-12-30T12:18:22Z</time>
      </trkpt>
      <trkpt lat="43.4119" lon="1.71685">
        <ele>205.877</ele>
        <time>2016-12-30T12:18:02Z</time>
      </trkpt>
      <trkpt lat="43.41183" lon="1.71798">
        <ele>186.341</ele>
        <time>2016-12-30T12:17:42Z</time>
      </trkpt>
      <trkpt lat="43.41159" lon="1.71831">
        <ele>180.371</ele>
        <time>2016-12-30T12:17:22Z</time>
      </trkpt>
      <trkpt lat="43.41167" lon="1.71859">
        <ele>180.071</ele>
        <time>2016-12-30T12:17:02Z</time>
      </trkpt>
      <trkpt lat="43.41185" lon="1.71882">
        <ele>180.074</ele>
        <time>2016-12-30T12:16:42Z</time>
      </trkpt>
      <trkpt lat="43.41178" lon="1.71962">
        <ele>183.654</ele>
        <time>2016-12-30T12:16:22Z</time>
      </trkpt>
      <trkpt lat="43.41162" lon="1.72005">
        <ele>185.279</ele>
        <time>2016-12-30T12:16:02Z</time>
      </trkpt>
      <trkpt lat="43.41074" lon="1.71948">
        <ele>180.294</ele>
        <time>2016-12-30T12:15:42Z</time>
      </trkpt>
      <trkpt lat="43.41059" lon="1.71998">
        <ele>182.208</ele>
        <time>2016-12-30T12:15:22Z</time>
      </trkpt>
      <trkpt lat="43.409" lon="1.71962">
        <ele>182.921</ele>
        <time>2016-12-30T12:15:02Z</time>
      </trkpt>
      <trkpt lat="43.4086" lon="1.72164">
        <ele>191.965</ele>
        <time>2016-12-30T12:14:42Z</time>
      </trkpt>
      <trkpt lat="43.40587" lon="1.72036">
        <ele>179.693</ele>
        <time>2016-12-30T12:14:22Z</time>
      </trkpt>
      <trkpt lat="43.40569" lon="1.72071">
        <ele>181.399</ele>
        <time>2016-12-30T12:14:02Z</time>
      </trkpt>
      <trkpt lat="43.40456" lon="1.72046">
        <ele>190.473</ele>
        <time>2016-12-30T12:13:42Z</time>
      </trkpt>
      <trkpt lat="43.40038" lon="1.71699">
        <ele>179.043</ele>
        <time>2016-12-30T12:13:22Z</time>
      </trkpt>
      <trkpt lat="43.39828" lon="1.7193">
        <ele>178.063</ele>
        <time>2016-12-30T12:13:02Z</time>
      </trkpt>
      <trkpt lat="43.39886" lon="1.71983">
        <ele>179.016</ele>
        <time>2016-12-30T12:12:42Z</time>
      </trkpt>
      <trkpt lat="43.39927" lon="1.72157">
        <ele>180.526</ele>
        <time>2016-12-30T12:12:22Z</time>
      </trkpt>
      <trkpt lat="43.39993" lon="1.72292">
        <ele>185.211</ele>
        <time>2016-12-30T12:12:02Z</time>
      </trkpt>
      <trkpt lat="43.40011" lon="1.72349">
        <ele>185.266</ele>
        <time>2016-12-30T12:11:42Z</time>
      </trkpt>
      <trkpt lat="43.40054" lon="1.72416">
        <ele>185.008</ele>
        <time>2016-12-30T12:11:22Z</time>
      </trkpt>
      <trkpt lat="43.40085" lon="1.7254">
        <ele>188.213</ele>
        <time>2016-12-30T12:11:02Z</time>
      </trkpt>
      <trkpt lat="43.40127" lon="1.72621">
        <ele>190.076</ele>
        <time>2016-12-30T12:10:42Z</time>
      </trkpt>
      <trkpt lat="43.40155" lon="1.72719">
        <ele>190.616</ele>
        <time>2016-12-30T12:10:22Z</time>
      </trkpt>
      <trkpt lat="43.40208" lon="1.72823">
        <ele>193.027</ele>
        <time>2016-12-30T12:10:02Z</time>
      </trkpt>
      <trkpt lat="43.40141" lon="1.73111">
        <ele>209.941</ele>
        <time>2016-12-30T12:09:42Z</time>
      </trkpt>
      <trkpt lat="43.40149" lon="1.73137">
        <ele>210.221</ele>
        <time>2016-12-30T12:09:22Z</time>
      </trkpt>
      <trkpt lat="43.40155" lon="1.73307">
        <ele>208.811</ele>
        <time>2016-12-30T12:09:02Z</time>
      </trkpt>
      <trkpt lat="43.40146" lon="1.73485">
        <ele>209.624</ele>
        <time>2016-12-30T12:08:42Z</time>
      </trkpt>
      <trkpt lat="43.40265" lon="1.73512">
        <ele>215.434</ele>
        <time>2016-12-30T12:08:22Z</time>
      </trkpt>
      <trkpt lat="43.40162" lon="1.74402">
        <ele>247.489</ele>
        <time>2016-12-30T12:08:02Z</time>
      </trkpt>
      <trkpt lat="43.4016" lon="1.74471">
        <ele>249.144</ele>
        <time>2016-12-30T12:07:42Z</time>
      </trkpt>
      <trkpt lat="43.40116" lon="1.74704">
        <ele>251.308</ele>
        <time>2016-12-30T12:07:22Z</time>
      </trkpt>
      <trkpt lat="43.40152" lon="1.74812">
        <ele>252.627</ele>
        <time>2016-12-30T12:07:02Z</time>
      </trkpt>
      <trkpt lat="43.40208" lon="1.74859">
        <ele>246.807</ele>
        <time>2016-12-30T12:06:42Z</time>
      </trkpt>
      <trkpt lat="43.40164" lon="1.75109">
        <ele>230.999</ele>
        <time>2016-12-30T12:06:22Z</time>
      </trkpt>
      <trkpt lat="43.40036" lon="1.7552">
        <ele>237.62</ele>
        <time>2016-12-30T12:06:02Z</time>
      </trkpt>
      <trkpt lat="43.39783" lon="1.75438">
        <ele>222.774</ele>
        <time>2016-12-30T12:05:42Z</time>
      </trkpt>
      <trkpt lat="43.39705" lon="1.75382">
        <ele>209.614</ele>
        <time>2016-12-30T12:05:22Z</time>
      </trkpt>
      <trkpt lat="43.3956" lon="1.75335">
        <ele>195.314</ele>
        <time>2016-12-30T12:05:02Z</time>
      </trkpt>
      <trkpt lat="43.39529" lon="1.75257">
        <ele>192.937</ele>
        <time>2016-12-30T12:04:42Z</time>
      </trkpt>
      <trkpt lat="43.39516" lon="1.75179">
        <ele>192.557</ele>
        <time>2016-12-30T12:04:22Z</time>
      </trkpt>
      <trkpt lat="43.39414" lon="1.75206">
        <ele>190.042</ele>
        <time>2016-12-30T12:04:02Z</time>
      </trkpt>
      <trkpt lat="43.39417" lon="1.75289">
        <ele>190.457</ele>
        <time>2016-12-30T12:03:42Z</time>
      </trkpt>
      <trkpt lat="43.39369" lon="1.75309">
        <ele>194.308</ele>
        <time>2016-12-30T12:03:22Z</time>
      </trkpt>
      <trkpt lat="43.393" lon="1.75361">
        <ele>202.608</ele>
        <time>2016-12-30T12:03:02Z</time>
      </trkpt>
      <trkpt lat="43.39265" lon="1.75532">
        <ele>215.726</ele>
        <time>2016-12-30T12:02:42Z</time>
      </trkpt>
      <trkpt lat="43.39186" lon="1.75747">
        <ele>230.825</ele>
        <time>2016-12-30T12:02:22Z</time>
      </trkpt>
      <trkpt lat="43.39193" lon="1.75767">
        <ele>230.892</ele>
        <time>2016-12-30T12:02:02Z</time>
      </trkpt>
      <trkpt lat="43.39159" lon="1.75958">
        <ele>234.686</ele>
        <time>2016-12-30T12:01:42Z</time>
      </trkpt>
      <trkpt lat="43.39079" lon="1.76209">
        <ele>237.196</ele>
        <time>2016-12-30T12:01:22Z</time>
      </trkpt>
      <trkpt lat="43.38986" lon="1.76176">
        <ele>228.576</ele>
        <time>2016-12-30T12:01:02Z</time>
      </trkpt>
      <trkpt lat="43.38926" lon="1.76164">
        <ele>231.159</ele>
        <time>2016-12-30T12:00:42Z</time>
      </trkpt>
      <trkpt lat="43.38811" lon="1.76207">
        <ele>229.169</ele>
        <time>2016-12-30T12:00:22Z</time>
      </trkpt>
      <trkpt lat="43.38775" lon="1.76308">
        <ele>236.364</ele>
        <time>2016-12-30T12:00:02Z</time>
      </trkpt>
      <trkpt lat="43.38672" lon="1.76514">
        <ele>249.159</ele>
        <time>2016-12-30T11:59:42Z</time>
      </trkpt>
      <trkpt lat="43.38585" lon="1.7665">
        <ele>250.008</ele>
        <time>2016-12-30T11:59:22Z</time>
      </trkpt>
      <trkpt lat="43.38564" lon="1.76759">
        <ele>249.321</ele>
        <time>2016-12-30T11:59:02Z</time>
      </trkpt>
      <trkpt lat="43.38328" lon="1.76732">
        <ele>245.929</ele>
        <time>2016-12-30T11:58:42Z</time>
      </trkpt>
      <trkpt lat="43.38259" lon="1.76909">
        <ele>245.647</ele>
        <time>2016-12-30T11:58:22Z</time>
      </trkpt>
      <trkpt lat="43.38243" lon="1.76922">
        <ele>244.531</ele>
        <time>2016-12-30T11:58:02Z</time>
      </trkpt>
      <trkpt lat="43.3812" lon="1.77223">
        <ele>229.655</ele>
        <time>2016-12-30T11:57:42Z</time>
      </trkpt>
      <trkpt lat="43.38103" lon="1.77282">
        <ele>222.785</ele>
        <time>2016-12-30T11:57:22Z</time>
      </trkpt>
      <trkpt lat="43.38129" lon="1.77372">
        <ele>211.465</ele>
        <time>2016-12-30T11:57:02Z</time>
      </trkpt>
      <trkpt lat="43.38123" lon="1.7738">
        <ele>210.488</ele>
        <time>2016-12-30T11:56:42Z</time>
      </trkpt>
      <trkpt lat="43.38099" lon="1.77356">
        <ele>210.238</ele>
        <time>2016-12-30T11:56:22Z</time>
      </trkpt>
      <trkpt lat="43.38053" lon="1.77264">
        <ele>206.223</ele>
        <time>2016-12-30T11:56:02Z</time>
      </trkpt>
      <trkpt lat="43.38031" lon="1.77181">
        <ele>200.268</ele>
        <time>2016-12-30T11:55:42Z</time>
      </trkpt>
      <trkpt lat="43.37965" lon="1.77186">
        <ele>191.708</ele>
        <time>2016-12-30T11:55:22Z</time>
      </trkpt>
      <trkpt lat="43.37864" lon="1.77522">
        <ele>190.015</ele>
        <time>2016-12-30T11:55:02Z</time>
      </trkpt>
      <trkpt lat="43.38002" lon="1.77602">
        <ele>190.623</ele>
        <time>2016-12-30T11:54:42Z</time>
      </trkpt>
      <trkpt lat="43.37907" lon="1.77915">
        <ele>205.733</ele>
        <time>2016-12-30T11:54:22Z</time>
      </trkpt>
      <trkpt lat="43.38004" lon="1.78025">
        <ele>200.725</ele>
        <time>2016-12-30T11:54:02Z</time>
      </trkpt>
      <trkpt lat="43.38057" lon="1.78087">
        <ele>199.029</ele>
        <time>2016-12-30T11:53:42Z</time>
      </trkpt>
      <trkpt lat="43.38089" lon="1.78137">
        <ele>201.359</ele>
        <time>2016-12-30T11:53:22Z</time>
      </trkpt>
      <trkpt lat="43.38203" lon="1.78159">
        <ele>205.489</ele>
        <time>2016-12-30T11:53:02Z</time>
      </trkpt>
      <trkpt lat="43.38132" lon="1.78391">
        <ele>213.352</ele>
        <time>2016-12-30T11:52:42Z</time>
      </trkpt>
      <trkpt lat="43.38068" lon="1.78501">
        <ele>217.632</ele>
        <time>2016-12-30T11:52:22Z</time>
      </trkpt>
      <trkpt lat="43.37954" lon="1.78885">
        <ele>230.677</ele>
        <time>2016-12-30T11:52:02Z</time>
      </trkpt>
      <trkpt lat="43.3791" lon="1.79104">
        <ele>236.772</ele>
        <time>2016-12-30T11:51:42Z</time>
      </trkpt>
      <trkpt lat="43.37858" lon="1.79171">
        <ele>242.308</ele>
        <time>2016-12-30T11:51:22Z</time>
      </trkpt>
      <trkpt lat="43.37802" lon="1.79278">
        <ele>251.015</ele>
        <time>2016-12-30T11:51:02Z</time>
      </trkpt>
      <trkpt lat="43.37753" lon="1.79394">
        <ele>258.141</ele>
        <time>2016-12-30T11:50:42Z</time>
      </trkpt>
      <trkpt lat="43.37637" lon="1.79412">
        <ele>254.671</ele>
        <time>2016-12-30T11:50:22Z</time>
      </trkpt>
      <trkpt lat="43.37587" lon="1.79437">
        <ele>253.72</ele>
        <time>2016-12-30T11:50:02Z</time>
      </trkpt>
      <trkpt lat="43.37495" lon="1.79467">
        <ele>248.014</ele>
        <time>2016-12-30T11:49:42Z</time>
      </trkpt>
      <trkpt lat="43.37411" lon="1.79445">
        <ele>249.144</ele>
        <time>2016-12-30T11:49:22Z</time>
      </trkpt>
      <trkpt lat="43.37357" lon="1.79397">
        <ele>246.824</ele>
        <time>2016-12-30T11:49:02Z</time>
      </trkpt>
      <trkpt lat="43.37297" lon="1.79399">
        <ele>247.957</ele>
        <time>2016-12-30T11:48:42Z</time>
      </trkpt>
      <trkpt lat="43.37281" lon="1.79411">
        <ele>245.937</ele>
        <time>2016-12-30T11:48:22Z</time>
      </trkpt>
      <trkpt lat="43.37187" lon="1.79419">
        <ele>233.152</ele>
        <time>2016-12-30T11:48:02Z</time>
      </trkpt>
      <trkpt lat="43.37007" lon="1.79415">
        <ele>220.887</ele>
        <time>2016-12-30T11:47:42Z</time>
      </trkpt>
      <trkpt lat="43.36966" lon="1.79389">
        <ele>220.008</ele>
        <time>2016-12-30T11:47:22Z</time>
      </trkpt>
      <trkpt lat="43.36903" lon="1.79305">
        <ele>216.017</ele>
        <time>2016-12-30T11:47:02Z</time>
      </trkpt>
      <trkpt lat="43.36853" lon="1.79205">
        <ele>214.189</ele>
        <time>2016-12-30T11:46:42Z</time>
      </trkpt>
      <trkpt lat="43.36792" lon="1.79176">
        <ele>211.328</ele>
        <time>2016-12-30T11:46:22Z</time>
      </trkpt>
      <trkpt lat="43.36773" lon="1.79134">
        <ele>207.417</ele>
        <time>2016-12-30T11:46:02Z</time>
      </trkpt>
      <trkpt lat="43.36744" lon="1.79123">
        <ele>205.461</ele>
        <time>2016-12-30T11:45:42Z</time>
      </trkpt>
      <trkpt lat="43.36727" lon="1.79106">
        <ele>203.261</ele>
        <time>2016-12-30T11:45:22Z</time>
      </trkpt>
      <trkpt lat="43.3672" lon="1.79072">
        <ele>204.821</ele>
        <time>2016-12-30T11:45:02Z</time>
      </trkpt>
      <trkpt lat="43.36668" lon="1.79042">
        <ele>207.164</ele>
        <time>2016-12-30T11:44:42Z</time>
      </trkpt>
      <trkpt lat="43.36575" lon="1.79124">
        <ele>200.034</ele>
        <time>2016-12-30T11:44:22Z</time>
      </trkpt>
      <trkpt lat="43.36554" lon="1.79162">
        <ele>200.029</ele>
        <time>2016-12-30T11:44:02Z</time>
      </trkpt>
      <trkpt lat="43.36489" lon="1.79213">
        <ele>201.054</ele>
        <time>2016-12-30T11:43:42Z</time>
      </trkpt>
      <trkpt lat="43.36456" lon="1.7931">
        <ele>202.108</ele>
        <time>2016-12-30T11:43:22Z</time>
      </trkpt>
      <trkpt lat="43.36454" lon="1.79407">
        <ele>209.121</ele>
        <time>2016-12-30T11:43:02Z</time>
      </trkpt>
      <trkpt lat="43.36413" lon="1.79618">
        <ele>205.365</ele>
        <time>2016-12-30T11:42:42Z</time>
      </trkpt>
      <trkpt lat="43.36425" lon="1.79691">
        <ele>203.793</ele>
        <time>2016-12-30T11:42:22Z</time>
      </trkpt>
      <trkpt lat="43.36519" lon="1.79749">
        <ele>203.962</ele>
        <time>2016-12-30T11:42:02Z</time>
      </trkpt>
      <trkpt lat="43.36573" lon="1.7986">
        <ele>201.686</ele>
        <time>2016-12-30T11:41:42Z</time>
      </trkpt>
      <trkpt lat="43.36626" lon="1.79947">
        <ele>205.646</ele>
        <time>2016-12-30T11:41:22Z</time>
      </trkpt>
      <trkpt lat="43.36676" lon="1.8011">
        <ele>204.796</ele>
        <time>2016-12-30T11:41:02Z</time>
      </trkpt>
      <trkpt lat="43.36731" lon="1.80219">
        <ele>206.959</ele>
        <time>2016-12-30T11:40:42Z</time>
      </trkpt>
      <trkpt lat="43.3676" lon="1.80256">
        <ele>205.719</ele>
        <time>2016-12-30T11:40:22Z</time>
      </trkpt>
      <trkpt lat="43.3686" lon="1.80265">
        <ele>210.354</ele>
        <time>2016-12-30T11:40:02Z</time>
      </trkpt>
      <trkpt lat="43.37019" lon="1.80449">
        <ele>209.479</ele>
        <time>2016-12-30T11:39:42Z</time>
      </trkpt>
      <trkpt lat="43.37024" lon="1.80552">
        <ele>207.708</ele>
        <time>2016-12-30T11:39:22Z</time>
      </trkpt>
      <trkpt lat="43.37042" lon="1.80623">
        <ele>208.316</ele>
        <time>2016-12-30T11:39:02Z</time>
      </trkpt>
      <trkpt lat="43.3698" lon="1.80651">
        <ele>205.088</ele>
        <time>2016-12-30T11:38:42Z</time>
      </trkpt>
      <trkpt lat="43.36961" lon="1.80736">
        <ele>212.446</ele>
        <time>2016-12-30T11:38:22Z</time>
      </trkpt>
      <trkpt lat="43.36924" lon="1.80859">
        <ele>226.162</ele>
        <time>2016-12-30T11:38:02Z</time>
      </trkpt>
      <trkpt lat="43.36887" lon="1.81062">
        <ele>244.256</ele>
        <time>2016-12-30T11:37:42Z</time>
      </trkpt>
      <trkpt lat="43.36829" lon="1.81168">
        <ele>255.636</ele>
        <time>2016-12-30T11:37:22Z</time>
      </trkpt>
      <trkpt lat="43.36821" lon="1.81207">
        <ele>257.826</ele>
        <time>2016-12-30T11:37:02Z</time>
      </trkpt>
      <trkpt lat="43.36776" lon="1.81323">
        <ele>263.729</ele>
        <time>2016-12-30T11:36:42Z</time>
      </trkpt>
      <trkpt lat="43.36712" lon="1.81457">
        <ele>264.069</ele>
        <time>2016-12-30T11:36:22Z</time>
      </trkpt>
      <trkpt lat="43.36658" lon="1.81526">
        <ele>268.174</ele>
        <time>2016-12-30T11:36:02Z</time>
      </trkpt>
      <trkpt lat="43.3662" lon="1.81612">
        <ele>266.639</ele>
        <time>2016-12-30T11:35:42Z</time>
      </trkpt>
      <trkpt lat="43.36603" lon="1.81719">
        <ele>265.408</ele>
        <time>2016-12-30T11:35:22Z</time>
      </trkpt>
      <trkpt lat="43.36585" lon="1.81749">
        <ele>270.614</ele>
        <time>2016-12-30T11:35:02Z</time>
      </trkpt>
      <trkpt lat="43.36581" lon="1.81841">
        <ele>276.422</ele>
        <time>2016-12-30T11:34:42Z</time>
      </trkpt>
      <trkpt lat="43.36526" lon="1.81948">
        <ele>277.742</ele>
        <time>2016-12-30T11:34:22Z</time>
      </trkpt>
      <trkpt lat="43.36463" lon="1.82009">
        <ele>275.299</ele>
        <time>2016-12-30T11:34:02Z</time>
      </trkpt>
      <trkpt lat="43.36435" lon="1.8197">
        <ele>275.963</ele>
        <time>2016-12-30T11:33:42Z</time>
      </trkpt>
      <trkpt lat="43.36439" lon="1.81909">
        <ele>276.013</ele>
        <time>2016-12-30T11:33:22Z</time>
      </trkpt>
      <trkpt lat="43.36467" lon="1.81865">
        <ele>281.553</ele>
        <time>2016-12-30T11:33:02Z</time>
      </trkpt>
      <trkpt lat="43.36491" lon="1.81787">
        <ele>276.956</ele>
        <time>2016-12-30T11:32:42Z</time>
      </trkpt>
      <trkpt lat="43.36473" lon="1.8181">
        <ele>274.836</ele>
        <time>2016-12-30T11:32:22Z</time>
      </trkpt>
      <trkpt lat="43.36453" lon="1.81822">
        <ele>268.891</ele>
        <time>2016-12-30T11:32:02Z</time>
      </trkpt>
      <trkpt lat="43.36412" lon="1.81878">
        <ele>262.076</ele>
        <time>2016-12-30T11:31:42Z</time>
      </trkpt>
      <trkpt lat="43.36389" lon="1.81968">
        <ele>255.308</ele>
        <time>2016-12-30T11:31:22Z</time>
      </trkpt>
      <trkpt lat="43.363" lon="1.82005">
        <ele>236.107</ele>
        <time>2016-12-30T11:31:02Z</time>
      </trkpt>
      <trkpt lat="43.36183" lon="1.81979">
        <ele>218.443</ele>
        <time>2016-12-30T11:30:42Z</time>
      </trkpt>
      <trkpt lat="43.3599" lon="1.81824">
        <ele>202.513</ele>
        <time>2016-12-30T11:30:22Z</time>
      </trkpt>
      <trkpt lat="43.35815" lon="1.8177">
        <ele>191.385</ele>
        <time>2016-12-30T11:30:02Z</time>
      </trkpt>
      <trkpt lat="43.3582" lon="1.8175">
        <ele>191.579</ele>
        <time>2016-12-30T11:29:42Z</time>
      </trkpt>
      <trkpt lat="43.35684" lon="1.81638">
        <ele>189.079</ele>
        <time>2016-12-30T11:29:22Z</time>
      </trkpt>
      <trkpt lat="43.35647" lon="1.81709">
        <ele>189.459</ele>
        <time>2016-12-30T11:29:02Z</time>
      </trkpt>
      <trkpt lat="43.35572" lon="1.81803">
        <ele>190.442</ele>
        <time>2016-12-30T11:28:42Z</time>
      </trkpt>
      <trkpt lat="43.35513" lon="1.81859">
        <ele>191.042</ele>
        <time>2016-12-30T11:28:22Z</time>
      </trkpt>
      <trkpt lat="43.35446" lon="1.81929">
        <ele>192.017</ele>
        <time>2016-12-30T11:28:02Z</time>
      </trkpt>
      <trkpt lat="43.35409" lon="1.81951">
        <ele>191.962</ele>
        <time>2016-12-30T11:27:42Z</time>
      </trkpt>
      <trkpt lat="43.35354" lon="1.8202">
        <ele>191.008</ele>
        <time>2016-12-30T11:27:22Z</time>
      </trkpt>
      <trkpt lat="43.35247" lon="1.81932">
        <ele>191.019</ele>
        <time>2016-12-30T11:27:02Z</time>
      </trkpt>
      <trkpt lat="43.35135" lon="1.81943">
        <ele>191.09</ele>
        <time>2016-12-30T11:26:42Z</time>
      </trkpt>
      <trkpt lat="43.35102" lon="1.81982">
        <ele>190.076</ele>
        <time>2016-12-30T11:26:22Z</time>
      </trkpt>
      <trkpt lat="43.3509" lon="1.82126">
        <ele>190.084</ele>
        <time>2016-12-30T11:26:02Z</time>
      </trkpt>
      <trkpt lat="43.35139" lon="1.82266">
        <ele>191.098</ele>
        <time>2016-12-30T11:25:42Z</time>
      </trkpt>
      <trkpt lat="43.35104" lon="1.82332">
        <ele>193.078</ele>
        <time>2016-12-30T11:25:22Z</time>
      </trkpt>
      <trkpt lat="43.35104" lon="1.82332">
        <ele>193.078</ele>
        <time>2016-12-30T11:25:22Z</time>
      </trkpt>
    </trkseg>
  </trk>
</gpx>